Etusivu
METAR-TAF:

METAR-TAF

Lentoasemat :

Baza 71 Aeriană

Câmpia Turzii, Romania

Leveyspiiri: 46-30-12N, Pituuspiiri: 023-53-07E, korkeus merenpinnasta: 324 m

Tämänhetkinen sää

Tämä raportti tehtiin 5 tuntia ja 33 minuuttia sitten, kello 17.00 UTC
Tuuli 6 kn etelästä/kaakosta
Lämpötila 34°C
Kosteus 30%
Ilmanpaine 1012 hPa
Näkyvyys 10 km tai enemmän
selkeää

METAR: LRCT 131700Z 15006KT 9999 SKC 34/14 Q1012 BLU BLU

Aika: 01:33 (22:33 UTC)


TAF: puuttuu

Säähavainnot ja -ennusteet yli 4000 lentoasemalta (METAR- ja TAF-raportit).

Käytössä olevat sääasemat on merkitty karttaan keltaisilla ja punaisilla pisteillä.

Aseta hiiri pisteen päälle nähdäksesi sääaseman nimen.

Klikkaa sitten nähdäksesi säähavainnot ja -ennusteet.

Kartan vaihtaminen: klikkaa mustalla rastilla varustettuja vihreitä pisteitä, niin voit zoomata sisään; viivalla varustettua vihreää pistettä, niin voit zoomata ulos tai vihreitä nuolia, niin pääset viereisille kartoille.


METAR-TAF: